sensor_id;sensor_type;location;lat;lon;timestamp;temperature;humidity
5621;DHT22;2832;50.864;12.186;2023-03-01T00:02:04;6.50;99.90
5621;DHT22;2832;50.864;12.186;2023-03-01T00:04:33;6.40;99.90
5621;DHT22;2832;50.864;12.186;2023-03-01T00:07:02;6.40;99.90
5621;DHT22;2832;50.864;12.186;2023-03-01T00:09:29;6.40;99.90
5621;DHT22;2832;50.864;12.186;2023-03-01T00:11:57;6.40;99.90
5621;DHT22;2832;50.864;12.186;2023-03-01T00:14:25;6.40;99.90
5621;DHT22;2832;50.864;12.186;2023-03-01T00:16:55;6.30;99.90
5621;DHT22;2832;50.864;12.186;2023-03-01T00:19:23;6.30;99.90
5621;DHT22;2832;50.864;12.186;2023-03-01T00:21:51;6.30;99.90
5621;DHT22;2832;50.864;12.186;2023-03-01T00:24:18;6.30;99.90
5621;DHT22;2832;50.864;12.186;2023-03-01T00:26:46;6.30;99.90
5621;DHT22;2832;50.864;12.186;2023-03-01T00:29:15;6.20;99.90
5621;DHT22;2832;50.864;12.186;2023-03-01T00:31:43;6.20;99.90
5621;DHT22;2832;50.864;12.186;2023-03-01T00:34:12;6.20;99.90
5621;DHT22;2832;50.864;12.186;2023-03-01T00:36:40;6.20;99.90
5621;DHT22;2832;50.864;12.186;2023-03-01T00:39:11;6.20;99.90
5621;DHT22;2832;50.864;12.186;2023-03-01T00:41:40;6.20;99.90
5621;DHT22;2832;50.864;12.186;2023-03-01T00:44:07;6.30;99.90
5621;DHT22;2832;50.864;12.186;2023-03-01T00:46:35;6.30;99.90
5621;DHT22;2832;50.864;12.186;2023-03-01T00:49:03;6.30;99.90
5621;DHT22;2832;50.864;12.186;2023-03-01T00:51:32;6.30;99.90
5621;DHT22;2832;50.864;12.186;2023-03-01T00:54:01;6.20;99.90
5621;DHT22;2832;50.864;12.186;2023-03-01T00:56:30;6.20;99.90
5621;DHT22;2832;50.864;12.186;2023-03-01T00:58:58;6.20;99.90
5621;DHT22;2832;50.864;12.186;2023-03-01T02:00:21;5.90;99.90
5621;DHT22;2832;50.864;12.186;2023-03-01T02:02:54;5.80;99.90
5621;DHT22;2832;50.864;12.186;2023-03-01T02:05:28;5.80;99.90
5621;DHT22;2832;50.864;12.186;2023-03-01T02:07:57;5.90;99.90
5621;DHT22;2832;50.864;12.186;2023-03-01T02:10:27;5.90;99.90
5621;DHT22;2832;50.864;12.186;2023-03-01T02:12:55;5.90;99.90
5621;DHT22;2832;50.864;12.186;2023-03-01T02:15:25;5.90;99.90
5621;DHT22;2832;50.864;12.186;2023-03-01T02:17:54;6.00;99.90
5621;DHT22;2832;50.864;12.186;2023-03-01T02:20:27;6.00;99.90
5621;DHT22;2832;50.864;12.186;2023-03-01T02:23:00;5.90;99.90
5621;DHT22;2832;50.864;12.186;2023-03-01T02:25:41;5.90;99.90
5621;DHT22;2832;50.864;12.186;2023-03-01T02:28:36;5.90;99.90
5621;DHT22;2832;50.864;12.186;2023-03-01T02:31:07;5.90;99.90
5621;DHT22;2832;50.864;12.186;2023-03-01T02:33:53;5.90;99.90
5621;DHT22;2832;50.864;12.186;2023-03-01T02:36:25;5.90;99.90
5621;DHT22;2832;50.864;12.186;2023-03-01T02:38:57;5.90;99.90
5621;DHT22;2832;50.864;12.186;2023-03-01T02:41:28;5.90;99.90
5621;DHT22;2832;50.864;12.186;2023-03-01T02:43:59;5.90;99.90
5621;DHT22;2832;50.864;12.186;2023-03-01T02:46:26;6.00;99.90
5621;DHT22;2832;50.864;12.186;2023-03-01T02:48:56;5.90;99.90
5621;DHT22;2832;50.864;12.186;2023-03-01T02:51:47;5.90;99.90
5621;DHT22;2832;50.864;12.186;2023-03-01T02:54:22;5.90;99.90
5621;DHT22;2832;50.864;12.186;2023-03-01T02:56:53;5.90;99.90
5621;DHT22;2832;50.864;12.186;2023-03-01T02:59:27;5.80;99.90
5621;DHT22;2832;50.864;12.186;2023-03-01T03:01:56;5.80;99.90
5621;DHT22;2832;50.864;12.186;2023-03-01T03:04:24;5.70;99.90
5621;DHT22;2832;50.864;12.186;2023-03-01T03:06:52;5.70;99.90
5621;DHT22;2832;50.864;12.186;2023-03-01T03:09:20;5.70;99.90
5621;DHT22;2832;50.864;12.186;2023-03-01T03:11:47;5.70;99.90
5621;DHT22;2832;50.864;12.186;2023-03-01T03:14:16;5.70;99.90
5621;DHT22;2832;50.864;12.186;2023-03-01T03:16:47;5.70;99.90
5621;DHT22;2832;50.864;12.186;2023-03-01T03:19:16;5.70;99.90
5621;DHT22;2832;50.864;12.186;2023-03-01T03:21:43;5.70;99.90
5621;DHT22;2832;50.864;12.186;2023-03-01T03:24:12;5.70;99.90
5621;DHT22;2832;50.864;12.186;2023-03-01T03:26:40;5.80;99.90
5621;DHT22;2832;50.864;12.186;2023-03-01T03:29:08;5.70;99.90
5621;DHT22;2832;50.864;12.186;2023-03-01T03:31:36;5.70;99.90
5621;DHT22;2832;50.864;12.186;2023-03-01T03:34:05;5.60;99.90
5621;DHT22;2832;50.864;12.186;2023-03-01T03:36:33;5.60;99.90
5621;DHT22;2832;50.864;12.186;2023-03-01T03:39:00;5.60;99.90
5621;DHT22;2832;50.864;12.186;2023-03-01T03:41:28;5.60;99.90
5621;DHT22;2832;50.864;12.186;2023-03-01T03:43:56;5.70;99.90
5621;DHT22;2832;50.864;12.186;2023-03-01T03:46:23;5.60;99.90
5621;DHT22;2832;50.864;12.186;2023-03-01T03:48:51;5.60;99.90
5621;DHT22;2832;50.864;12.186;2023-03-01T03:51:20;5.60;99.90
5621;DHT22;2832;50.864;12.186;2023-03-01T03:53:49;5.70;99.90
5621;DHT22;2832;50.864;12.186;2023-03-01T03:56:16;5.70;99.90
5621;DHT22;2832;50.864;12.186;2023-03-01T03:58:44;5.60;99.90
5621;DHT22;2832;50.864;12.186;2023-03-01T04:01:12;5.70;99.90
5621;DHT22;2832;50.864;12.186;2023-03-01T06:04:09;5.30;99.90
5621;DHT22;2832;50.864;12.186;2023-03-01T06:06:38;5.20;99.90
5621;DHT22;2832;50.864;12.186;2023-03-01T06:09:07;5.20;99.90
5621;DHT22;2832;50.864;12.186;2023-03-01T06:11:37;5.20;99.90
5621;DHT22;2832;50.864;12.186;2023-03-01T06:14:07;5.10;99.90
5621;DHT22;2832;50.864;12.186;2023-03-01T06:16:36;5.10;99.90
5621;DHT22;2832;50.864;12.186;2023-03-01T06:19:05;5.10;99.90
5621;DHT22;2832;50.864;12.186;2023-03-01T06:21:36;5.10;99.90
5621;DHT22;2832;50.864;12.186;2023-03-01T06:24:05;5.10;99.90
5621;DHT22;2832;50.864;12.186;2023-03-01T06:26:35;5.10;99.90
5621;DHT22;2832;50.864;12.186;2023-03-01T06:29:03;5.00;99.90
5621;DHT22;2832;50.864;12.186;2023-03-01T06:31:32;5.00;99.90
5621;DHT22;2832;50.864;12.186;2023-03-01T06:34:01;5.00;99.90
5621;DHT22;2832;50.864;12.186;2023-03-01T06:36:30;5.00;99.90
5621;DHT22;2832;50.864;12.186;2023-03-01T06:39:05;5.00;99.90
5621;DHT22;2832;50.864;12.186;2023-03-01T06:41:37;5.00;99.90
5621;DHT22;2832;50.864;12.186;2023-03-01T06:44:13;5.00;99.90
5621;DHT22;2832;50.864;12.186;2023-03-01T06:46:42;5.10;99.90
5621;DHT22;2832;50.864;12.186;2023-03-01T06:49:11;5.10;99.90
5621;DHT22;2832;50.864;12.186;2023-03-01T06:51:38;5.10;99.90
5621;DHT22;2832;50.864;12.186;2023-03-01T06:54:08;5.10;99.90
5621;DHT22;2832;50.864;12.186;2023-03-01T06:56:39;5.10;99.90
5621;DHT22;2832;50.864;12.186;2023-03-01T06:59:07;5.10;99.90
5621;DHT22;2832;50.864;12.186;2023-03-01T07:01:35;5.10;99.90
5621;DHT22;2832;50.864;12.186;2023-03-01T07:04:03;5.10;99.90
5621;DHT22;2832;50.864;12.186;2023-03-01T07:06:32;5.10;99.90
5621;DHT22;2832;50.864;12.186;2023-03-01T08:04:35;4.80;99.90
5621;DHT22;2832;50.864;12.186;2023-03-01T08:07:05;4.80;99.90
5621;DHT22;2832;50.864;12.186;2023-03-01T09:08:40;5.20;99.90
5621;DHT22;2832;50.864;12.186;2023-03-01T09:11:11;5.50;99.90
5621;DHT22;2832;50.864;12.186;2023-03-01T09:13:39;5.80;99.90
5621;DHT22;2832;50.864;12.186;2023-03-01T09:16:08;6.00;99.90
5621;DHT22;2832;50.864;12.186;2023-03-01T09:18:38;6.20;99.90
5621;DHT22;2832;50.864;12.186;2023-03-01T09:21:08;6.30;99.90
5621;DHT22;2832;50.864;12.186;2023-03-01T09:23:45;6.50;99.90
5621;DHT22;2832;50.864;12.186;2023-03-01T09:26:15;6.60;99.90
5621;DHT22;2832;50.864;12.186;2023-03-01T09:28:46;6.60;99.90
5621;DHT22;2832;50.864;12.186;2023-03-01T09:31:16;6.60;99.90
5621;DHT22;2832;50.864;12.186;2023-03-01T09:33:47;6.70;99.90
5621;DHT22;2832;50.864;12.186;2023-03-01T09:36:17;6.80;99.90
5621;DHT22;2832;50.864;12.186;2023-03-01T09:38:48;6.90;99.90
5621;DHT22;2832;50.864;12.186;2023-03-01T09:41:28;6.90;99.90
5621;DHT22;2832;50.864;12.186;2023-03-01T09:44:02;6.90;99.90
5621;DHT22;2832;50.864;12.186;2023-03-01T09:46:38;7.00;99.90
5621;DHT22;2832;50.864;12.186;2023-03-01T09:49:13;7.00;99.90
5621;DHT22;2832;50.864;12.186;2023-03-01T09:51:54;7.10;99.90
5621;DHT22;2832;50.864;12.186;2023-03-01T09:54:26;7.10;99.90
5621;DHT22;2832;50.864;12.186;2023-03-01T09:57:04;7.10;99.90
5621;DHT22;2832;50.864;12.186;2023-03-01T09:59:48;7.20;99.90
5621;DHT22;2832;50.864;12.186;2023-03-01T10:02:27;7.20;99.90
5621;DHT22;2832;50.864;12.186;2023-03-01T10:05:05;7.10;99.90
5621;DHT22;2832;50.864;12.186;2023-03-01T10:07:42;7.00;99.90
5621;DHT22;2832;50.864;12.186;2023-03-01T11:09:31;7.20;99.90
5621;DHT22;2832;50.864;12.186;2023-03-01T11:12:08;7.20;99.90
5621;DHT22;2832;50.864;12.186;2023-03-01T11:14:47;7.10;99.90
5621;DHT22;2832;50.864;12.186;2023-03-01T11:17:21;7.00;99.90
5621;DHT22;2832;50.864;12.186;2023-03-01T11:20:10;6.90;99.90
5621;DHT22;2832;50.864;12.186;2023-03-01T11:22:48;7.00;99.90
5621;DHT22;2832;50.864;12.186;2023-03-01T11:25:22;7.10;99.90
5621;DHT22;2832;50.864;12.186;2023-03-01T11:27:52;7.00;99.90
5621;DHT22;2832;50.864;12.186;2023-03-01T11:30:24;7.00;99.90
5621;DHT22;2832;50.864;12.186;2023-03-01T11:33:03;7.10;99.90
5621;DHT22;2832;50.864;12.186;2023-03-01T11:35:35;7.10;99.90
5621;DHT22;2832;50.864;12.186;2023-03-01T11:38:18;7.20;99.90
5621;DHT22;2832;50.864;12.186;2023-03-01T11:41:00;7.30;99.90
5621;DHT22;2832;50.864;12.186;2023-03-01T11:43:35;7.40;99.90
5621;DHT22;2832;50.864;12.186;2023-03-01T11:46:29;7.60;99.90
5621;DHT22;2832;50.864;12.186;2023-03-01T11:49:17;7.70;99.90
5621;DHT22;2832;50.864;12.186;2023-03-01T11:51:54;7.70;99.90
5621;DHT22;2832;50.864;12.186;2023-03-01T11:54:30;7.50;99.90
5621;DHT22;2832;50.864;12.186;2023-03-01T11:57:09;7.30;99.90
5621;DHT22;2832;50.864;12.186;2023-03-01T12:03:00;7.40;99.90
5621;DHT22;2832;50.864;12.186;2023-03-01T12:06:06;7.40;99.90
5621;DHT22;2832;50.864;12.186;2023-03-01T12:08:41;7.50;99.90
5621;DHT22;2832;50.864;12.186;2023-03-01T12:11:20;7.30;99.90
5621;DHT22;2832;50.864;12.186;2023-03-01T12:14:16;7.40;99.90
5621;DHT22;2832;50.864;12.186;2023-03-01T12:17:09;7.30;99.90
5621;DHT22;2832;50.864;12.186;2023-03-01T12:19:52;7.20;99.90
5621;DHT22;2832;50.864;12.186;2023-03-01T12:22:30;7.30;99.90
5621;DHT22;2832;50.864;12.186;2023-03-01T12:28:25;7.20;99.90
5621;DHT22;2832;50.864;12.186;2023-03-01T12:31:18;7.20;99.90
5621;DHT22;2832;50.864;12.186;2023-03-01T12:34:01;7.30;99.90
5621;DHT22;2832;50.864;12.186;2023-03-01T12:36:43;7.30;99.90
5621;DHT22;2832;50.864;12.186;2023-03-01T12:39:32;7.30;99.90
5621;DHT22;2832;50.864;12.186;2023-03-01T12:42:07;7.30;99.90
5621;DHT22;2832;50.864;12.186;2023-03-01T12:44:50;7.30;99.90
5621;DHT22;2832;50.864;12.186;2023-03-01T12:47:42;7.20;99.90
5621;DHT22;2832;50.864;12.186;2023-03-01T12:50:21;7.20;99.90
5621;DHT22;2832;50.864;12.186;2023-03-01T12:52:52;7.20;99.90
5621;DHT22;2832;50.864;12.186;2023-03-01T12:55:31;7.30;99.90
5621;DHT22;2832;50.864;12.186;2023-03-01T12:58:07;7.30;99.90
5621;DHT22;2832;50.864;12.186;2023-03-01T13:00:50;7.20;99.90
5621;DHT22;2832;50.864;12.186;2023-03-01T13:03:30;7.30;99.90
5621;DHT22;2832;50.864;12.186;2023-03-01T13:06:08;7.30;99.90
5621;DHT22;2832;50.864;12.186;2023-03-01T13:08:45;7.30;99.90
5621;DHT22;2832;50.864;12.186;2023-03-01T13:17:44;7.70;99.90
5621;DHT22;2832;50.864;12.186;2023-03-01T13:51:22;7.80;99.90
5621;DHT22;2832;50.864;12.186;2023-03-01T14:12:39;7.70;99.90
5621;DHT22;2832;50.864;12.186;2023-03-01T14:15:19;7.70;99.90
5621;DHT22;2832;50.864;12.186;2023-03-01T14:17:57;7.70;99.90
5621;DHT22;2832;50.864;12.186;2023-03-01T14:20:33;7.90;99.90
5621;DHT22;2832;50.864;12.186;2023-03-01T14:23:11;7.90;99.90
5621;DHT22;2832;50.864;12.186;2023-03-01T14:25:46;7.80;99.90
5621;DHT22;2832;50.864;12.186;2023-03-01T14:28:21;7.80;99.90
5621;DHT22;2832;50.864;12.186;2023-03-01T14:30:54;7.90;99.90
5621;DHT22;2832;50.864;12.186;2023-03-01T14:33:24;8.00;99.90
5621;DHT22;2832;50.864;12.186;2023-03-01T14:35:56;8.20;99.90
5621;DHT22;2832;50.864;12.186;2023-03-01T14:38:30;8.30;99.90
5621;DHT22;2832;50.864;12.186;2023-03-01T14:41:00;8.30;99.90
5621;DHT22;2832;50.864;12.186;2023-03-01T14:43:31;8.30;99.90
5621;DHT22;2832;50.864;12.186;2023-03-01T14:46:00;8.50;99.90
5621;DHT22;2832;50.864;12.186;2023-03-01T14:48:30;8.50;99.90
5621;DHT22;2832;50.864;12.186;2023-03-01T14:50:59;8.60;99.90
5621;DHT22;2832;50.864;12.186;2023-03-01T14:53:29;8.70;99.90
5621;DHT22;2832;50.864;12.186;2023-03-01T14:56:00;8.90;99.90
5621;DHT22;2832;50.864;12.186;2023-03-01T14:58:32;9.00;99.90
5621;DHT22;2832;50.864;12.186;2023-03-01T15:01:03;9.00;99.90
5621;DHT22;2832;50.864;12.186;2023-03-01T15:03:34;8.90;99.90
5621;DHT22;2832;50.864;12.186;2023-03-01T15:06:05;8.90;99.90
5621;DHT22;2832;50.864;12.186;2023-03-01T15:08:35;9.00;99.90
5621;DHT22;2832;50.864;12.186;2023-03-01T18:26:00;9.40;99.90
5621;DHT22;2832;50.864;12.186;2023-03-01T19:12:10;9.50;99.90
5621;DHT22;2832;50.864;12.186;2023-03-01T19:14:38;9.50;99.90
5621;DHT22;2832;50.864;12.186;2023-03-01T19:17:06;9.50;99.90
5621;DHT22;2832;50.864;12.186;2023-03-01T19:19:34;9.50;99.90
5621;DHT22;2832;50.864;12.186;2023-03-01T19:22:02;9.50;99.90
5621;DHT22;2832;50.864;12.186;2023-03-01T19:24:30;9.60;99.90
5621;DHT22;2832;50.864;12.186;2023-03-01T19:26:58;9.60;99.90
5621;DHT22;2832;50.864;12.186;2023-03-01T19:29:29;9.50;99.90
5621;DHT22;2832;50.864;12.186;2023-03-01T19:31:56;9.50;99.90
5621;DHT22;2832;50.864;12.186;2023-03-01T19:34:24;9.40;99.90
5621;DHT22;2832;50.864;12.186;2023-03-01T19:36:52;9.40;99.90
5621;DHT22;2832;50.864;12.186;2023-03-01T19:39:21;9.50;99.90
5621;DHT22;2832;50.864;12.186;2023-03-01T19:41:49;9.50;99.90
5621;DHT22;2832;50.864;12.186;2023-03-01T19:44:17;9.60;99.90
5621;DHT22;2832;50.864;12.186;2023-03-01T19:46:53;9.60;99.90
5621;DHT22;2832;50.864;12.186;2023-03-01T19:49:22;9.60;99.90
5621;DHT22;2832;50.864;12.186;2023-03-01T19:51:50;9.50;99.90
5621;DHT22;2832;50.864;12.186;2023-03-01T19:54:18;9.60;99.90
5621;DHT22;2832;50.864;12.186;2023-03-01T19:56:48;9.50;99.90
5621;DHT22;2832;50.864;12.186;2023-03-01T19:59:16;9.50;99.90
5621;DHT22;2832;50.864;12.186;2023-03-01T20:01:49;9.50;99.90
5621;DHT22;2832;50.864;12.186;2023-03-01T20:04:19;9.40;99.90
5621;DHT22;2832;50.864;12.186;2023-03-01T20:06:47;9.40;99.90
5621;DHT22;2832;50.864;12.186;2023-03-01T20:09:16;9.50;99.90
5621;DHT22;2832;50.864;12.186;2023-03-01T20:11:43;9.50;99.90
5621;DHT22;2832;50.864;12.186;2023-03-01T21:12:55;9.40;99.90
5621;DHT22;2832;50.864;12.186;2023-03-01T21:15:23;9.30;99.90
5621;DHT22;2832;50.864;12.186;2023-03-01T21:17:51;9.30;99.90
5621;DHT22;2832;50.864;12.186;2023-03-01T21:20:19;9.20;99.90
5621;DHT22;2832;50.864;12.186;2023-03-01T21:22:47;9.20;99.90
5621;DHT22;2832;50.864;12.186;2023-03-01T21:25:15;9.30;99.90
5621;DHT22;2832;50.864;12.186;2023-03-01T21:27:43;9.30;99.90
5621;DHT22;2832;50.864;12.186;2023-03-01T21:30:13;9.30;99.90
5621;DHT22;2832;50.864;12.186;2023-03-01T21:32:40;9.30;99.90
5621;DHT22;2832;50.864;12.186;2023-03-01T21:35:09;9.30;99.90
5621;DHT22;2832;50.864;12.186;2023-03-01T21:37:38;9.30;99.90
5621;DHT22;2832;50.864;12.186;2023-03-01T21:40:09;9.30;99.90
5621;DHT22;2832;50.864;12.186;2023-03-01T21:42:38;9.30;99.90
5621;DHT22;2832;50.864;12.186;2023-03-01T21:45:08;9.30;99.90
5621;DHT22;2832;50.864;12.186;2023-03-01T21:47:38;9.40;99.90
5621;DHT22;2832;50.864;12.186;2023-03-01T21:50:07;9.30;99.90
5621;DHT22;2832;50.864;12.186;2023-03-01T21:52:34;9.40;99.90
5621;DHT22;2832;50.864;12.186;2023-03-01T21:55:02;9.40;99.90
5621;DHT22;2832;50.864;12.186;2023-03-01T21:57:31;9.40;99.90
5621;DHT22;2832;50.864;12.186;2023-03-01T21:59:58;9.30;99.90
5621;DHT22;2832;50.864;12.186;2023-03-01T22:02:26;9.30;99.90
5621;DHT22;2832;50.864;12.186;2023-03-01T22:04:55;9.30;99.90
5621;DHT22;2832;50.864;12.186;2023-03-01T22:07:23;9.20;99.90
5621;DHT22;2832;50.864;12.186;2023-03-01T22:09:51;9.20;99.90
5621;DHT22;2832;50.864;12.186;2023-03-01T22:12:19;9.30;99.90
5621;DHT22;2832;50.864;12.186;2023-03-01T22:14:46;9.20;99.90
5621;DHT22;2832;50.864;12.186;2023-03-01T22:17:14;9.20;99.90
5621;DHT22;2832;50.864;12.186;2023-03-01T22:19:42;9.20;99.90
5621;DHT22;2832;50.864;12.186;2023-03-01T22:22:12;9.20;99.90
5621;DHT22;2832;50.864;12.186;2023-03-01T22:24:40;9.20;99.90
5621;DHT22;2832;50.864;12.186;2023-03-01T22:27:08;9.20;99.90
5621;DHT22;2832;50.864;12.186;2023-03-01T22:29:35;9.10;99.90
5621;DHT22;2832;50.864;12.186;2023-03-01T22:32:04;9.20;99.90
5621;DHT22;2832;50.864;12.186;2023-03-01T22:34:31;9.20;99.90
5621;DHT22;2832;50.864;12.186;2023-03-01T22:36:59;9.20;99.90
5621;DHT22;2832;50.864;12.186;2023-03-01T22:39:28;9.20;99.90
5621;DHT22;2832;50.864;12.186;2023-03-01T22:41:56;9.20;99.90
5621;DHT22;2832;50.864;12.186;2023-03-01T22:44:24;9.10;99.90
5621;DHT22;2832;50.864;12.186;2023-03-01T22:46:52;9.20;99.90
5621;DHT22;2832;50.864;12.186;2023-03-01T22:49:20;9.20;99.90
5621;DHT22;2832;50.864;12.186;2023-03-01T22:51:50;9.20;99.90
5621;DHT22;2832;50.864;12.186;2023-03-01T22:54:18;9.10;99.90
5621;DHT22;2832;50.864;12.186;2023-03-01T22:56:48;9.10;99.90
5621;DHT22;2832;50.864;12.186;2023-03-01T22:59:19;9.20;99.90
5621;DHT22;2832;50.864;12.186;2023-03-01T23:01:48;9.10;99.90
5621;DHT22;2832;50.864;12.186;2023-03-01T23:04:18;9.20;99.90
5621;DHT22;2832;50.864;12.186;2023-03-01T23:06:49;9.10;99.90
5621;DHT22;2832;50.864;12.186;2023-03-01T23:09:20;9.10;99.90
5621;DHT22;2832;50.864;12.186;2023-03-01T23:11:50;9.10;99.90
